Flight Track Log - Related Links

Times and Time Zones

All times are in EST time to prevent confusion due to time zone crossing. See the N120WE flight status page for this flight to view local times or setup timezone preferences in your user account.

Time Position Orientation Groundspeed Altitude Reporting Facility
EST Latitude Longitude Course Direction KTS MPH feet Rate Location/Type
Sun 11:06:52 AM 39.9833 -85.9667 360° North 126 145 2,400  Level Indianapolis TRACON
Sun 11:07:10 AM 39.9833 -85.9667 37° Northeast 126 145 2,500 405 Climbing Indianapolis TRACON
Sun 11:08:06 AM 40.0128 -85.9456 29° Northeast 127 146 2,900 462 Climbing Chicago Center
Sun 11:09:07 AM 40.0428 -85.9172 36° Northeast 130 150 3,400 492 Climbing Chicago Center
Sun 11:10:08 AM 40.0722 -85.8889 36° Northeast 132 152 3,900 500 Climbing Chicago Center
Sun 11:11:19 AM 40.1075 -85.8536 37° Northeast 134 154 4,500 496 Climbing Indianapolis Center
Sun 11:12:21 AM 40.1383 -85.8214 39° Northeast 138 159 5,000 488 Climbing Indianapolis Center
Sun 11:13:22 AM 40.1711 -85.7917 35° Northeast 141 162 5,500 492 Climbing Indianapolis Center
Sun 11:14:23 AM 40.2036 -85.7611 36° Northeast 143 165 6,000 488 Climbing Indianapolis Center
Sun 11:15:25 AM 40.2347 -85.7311 36° Northeast 142 163 6,500 488 Climbing Indianapolis Center
Sun 11:16:26 AM 40.2639 -85.7022 37° Northeast 135 155 7,000 246 Climbing Indianapolis Center
Sun 11:17:27 AM 40.2975 -85.6703 36° Northeast 143 165 7,000  Level Indianapolis Center
Sun 11:18:29 AM 40.3406 -85.6297 36° Northeast 157 181 7,000  Level Indianapolis Center
Sun 11:19:30 AM 40.3758 -85.5953 37° Northeast 159 183 7,000  Level Indianapolis Center
Sun 11:20:23 AM 40.4044 -85.5667 37° Northeast 158 182 7,000  Level Chicago Center
Sun 11:21:24 AM 40.4400 -85.5311 37° Northeast 159 183 7,000  Level Chicago Center
Sun 11:22:26 AM 40.4769 -85.4975 35° Northeast 161 185 7,000  Level Chicago Center
Sun 11:23:27 AM 40.5194 -85.4567 36° Northeast 159 183 7,000  Level Chicago Center
Sun 11:24:29 AM 40.5550 -85.4197 38° Northeast 161 185 7,000  Level Chicago Center
Sun 11:25:30 AM 40.5917 -85.3850 36° Northeast 163 188 7,000  Level Chicago Center
Sun 11:26:32 AM 40.6283 -85.3514 35° Northeast 162 186 7,000  Level Chicago Center
Sun 11:27:34 AM 40.6689 -85.3172 33° Northeast 163 188 7,000  Level Chicago Center
Sun 11:28:35 AM 40.7061 -85.2844 34° Northeast 163 188 7,000  Level Chicago Center
Sun 11:29:37 AM 40.7439 -85.2506 34° Northeast 164 189 7,000  Level Chicago Center
Sun 11:30:38 AM 40.7814 -85.2183 33° Northeast 162 186 7,000  Level Chicago Center
Sun 11:31:40 AM 40.8181 -85.1844 35° Northeast 161 185 7,000  Level Chicago Center
Sun 11:32:41 AM 40.8558 -85.1522 33° Northeast 162 186 7,000  Level Chicago Center
Sun 11:33:43 AM 40.9006 -85.1128 34° Northeast 161 185 7,000  Level Chicago Center
Sun 11:34:44 AM 40.9381 -85.0783 35° Northeast 163 188 7,000  Level Chicago Center
Sun 11:35:46 AM 40.9767 -85.0458 32° Northeast 165 190 7,000  Level Chicago Center
Sun 11:36:47 AM 41.0139 -85.0122 34° Northeast 164 189 7,000  Level Chicago Center
Sun 11:37:49 AM 41.0514 -84.9775 35° Northeast 164 189 7,000  Level Chicago Center
Sun 11:38:50 AM 41.0897 -84.9439 33° Northeast 165 190 7,000  Level Chicago Center
Sun 11:39:52 AM 41.1264 -84.9111 34° Northeast 163 188 7,000  Level Chicago Center
Sun 11:40:53 AM 41.1714 -84.8711 34° Northeast 162 186 7,000  Level Chicago Center
Sun 11:41:55 AM 41.2089 -84.8375 34° Northeast 163 188 7,000  Level Chicago Center
Sun 11:42:56 AM 41.2469 -84.8047 33° Northeast 163 188 7,000 49 Level Chicago Center
Sun 11:43:58 AM 41.2839 -84.7708 35° Northeast 163 188 7,100 49 Climbing Chicago Center
Sun 11:44:59 AM 41.3208 -84.7367 35° Northeast 162 186 7,100  Level Chicago Center
Sun 11:46:01 AM 41.3589 -84.7031 34° Northeast 163 188 7,100  Level Chicago Center
Sun 11:47:02 AM 41.3964 -84.6700 33° Northeast 163 188 7,100  Level Chicago Center
Sun 11:48:04 AM 41.4414 -84.6286 35° Northeast 164 189 7,100  Level Chicago Center
Sun 11:49:05 AM 41.4789 -84.5942 35° Northeast 164 189 7,100  Level Chicago Center
Sun 11:50:07 AM 41.5164 -84.5606 34° Northeast 164 189 7,100  Level Chicago Center
Sun 11:51:08 AM 41.5544 -84.5267 34° Northeast 164 189 7,100  Level Chicago Center
Sun 11:52:10 AM 41.5914 -84.4925 35° Northeast 163 188 7,100  Level Chicago Center
Sun 11:53:03 AM 41.6281 -84.4594 34° Northeast 161 185 7,100  Level Cleveland Center
Sun 11:54:04 AM 41.6647 -84.4247 35° Northeast 162 186 7,100 -162 Level Cleveland Center
Sun 11:54:54 AM 41.6969 -84.3983 31° Northeast 164 189 6,800 -197 Descending Cleveland Center
Sun 11:55:05 AM 41.7033 -84.3914 39° Northeast 163 188 6,900 -500 Climbing Cleveland Center
Sun 11:55:30 AM 41.7200 -84.3739 38° Northeast 170 196 6,500 -484 Descending Cleveland Center
Sun 11:56:07 AM 41.7433 -84.3550 31° Northeast 170 196 6,400 -393 Descending Cleveland Center
Sun 11:56:31 AM 41.7611 -84.3353 40° Northeast 175 201 6,100 -393 Descending Cleveland Center
Sun 11:57:08 AM 41.7842 -84.3164 31° Northeast 177 204 6,000 -358 Descending Cleveland Center
Sun 11:57:38 AM 41.8067 -84.2947 36° Northeast 180 207 5,700 -393 Descending Cleveland Center
Sun 11:58:09 AM 41.8247 -84.2781 35° Northeast 179 206 5,600 -455 Descending Cleveland Center
Sun 11:58:44 AM 41.8542 -84.2544 31° Northeast 179 206 5,200 -387 Descending Cleveland Center
Sun 11:59:11 AM 41.8686 -84.2408 35° Northeast 177 204 5,200 -197 Level Cleveland Center
Sun 11:59:45 AM 41.8953 -84.2158 35° Northeast 176 203 5,000 -98 Descending Cleveland Center
Sun 12:00:12 PM 41.9089 -84.2033 34° Northeast 177 204 5,100  Climbing Cleveland Center
Sun 12:00:46 PM 41.9342 -84.1797 35° Northeast 171 197 5,000  Descending Cleveland Center
Sun 12:01:13 PM 41.9478 -84.1664 36° Northeast 173 199 5,100  Climbing Cleveland Center
Sun 12:01:46 PM 41.9708 -84.1431 37° Northeast 169 194 5,000  Descending Cleveland Center
Sun 12:02:15 PM 41.9850 -84.1281 38° Northeast 170 196 5,100 -98 Climbing Cleveland Center
Sun 12:02:47 PM 42.0042 -84.0975 50° Northeast 178 205 4,900 -295 Descending Cleveland Center
Sun 12:03:16 PM 42.0161 -84.0789 49° Northeast 172 198 4,800 -393 Descending Cleveland Center
Sun 12:03:48 PM 42.0358 -84.0433 53° Northeast 181 208 4,500 -393 Descending Cleveland Center
Sun 12:04:17 PM 42.0469 -84.0258 49° Northeast 179 206 4,400 -411 Descending Cleveland Center
Sun 12:05:01 PM 42.0747 -83.9817 50° Northeast 180 207 4,000 -581 Descending Cleveland Center
Sun 12:05:19 PM 42.0850 -83.9633 53° Northeast 180 207 3,800 -590 Descending Cleveland Center
Sun 12:06:02 PM 42.1064 -83.9272 51° Northeast 182 209 3,400 -393 Descending Cleveland Center
Sun 12:06:20 PM 42.1164 -83.9114 50° Northeast 180 207 3,400 -304 Level Cleveland Center
Sun 12:07:21 PM 42.1481 -83.8619 49° Northeast 178 205 3,000 -371 Descending Cleveland Center
Sun 12:07:57 PM 42.1622 -83.8342 55° Northeast 161 185 2,800 -387 Descending Cleveland Center
Sun 12:08:23 PM 42.1744 -83.8142 50° Northeast 169 194 2,600 -492 Descending Cleveland Center
Sun 12:08:58 PM 42.1875 -83.7844 59° Northeast 158 182 2,300 -492 Descending Cleveland Center
Sun 12:09:24 PM 42.1972 -83.7664 54° Northeast 160 184 2,100 -590 Descending Cleveland Center
Sun 12:09:59 PM 42.2078 -83.7394 62° Northeast 126 145 1,700 -393 Descending Cleveland Center
Sun 12:10:25 PM 42.2131 -83.7247 64° Northeast 143 165 1,700 -90 Level Cleveland Center
Sun 12:11:06 PM 42.2272 -83.7086 40° Northeast 92 106 1,600 -194 Descending Cleveland Center
Sun 12:11:27 PM 42.2311 -83.7133 318° Northwest 113 130 1,500 -439 Descending Cleveland Center
Sun 12:12:28 PM 42.2269 -83.7406 258° West 92 106 1,000 -492 Descending Cleveland Center
Sun 12:14:00 PM 42.2167 -83.7333 270° West  Level FlightAware Approximate

Login

Don't have an account? Register now (free) for customized features, flight alerts, and more!